createdAt,value
2017-03-30T00:00:51.987Z,977.46
2017-03-30T00:02:01.020Z,977.48
2017-03-30T00:03:09.784Z,977.47
2017-03-30T00:04:18.547Z,977.47
2017-03-30T00:05:27.610Z,977.4
2017-03-30T00:06:36.373Z,977.44
2017-03-30T00:07:45.121Z,977.41
2017-03-30T00:08:53.811Z,977.4
2017-03-30T00:10:02.823Z,977.37
2017-03-30T00:11:11.587Z,977.42
2017-03-30T00:12:21.295Z,977.39
2017-03-30T00:13:30.059Z,977.37
2017-03-30T00:14:38.829Z,977.31
2017-03-30T00:15:47.892Z,977.3
2017-03-30T00:16:56.905Z,977.27
2017-03-30T00:18:06.282Z,977.32
2017-03-30T00:19:15.055Z,977.31
2017-03-30T00:20:23.814Z,977.32
2017-03-30T00:21:32.576Z,977.31
2017-03-30T00:22:42.602Z,977.31
2017-03-30T00:23:51.350Z,977.38
2017-03-30T00:25:00.054Z,977.34
2017-03-30T00:26:09.428Z,977.31
2017-03-30T00:27:18.494Z,977.29
2017-03-30T00:28:27.851Z,977.26
2017-03-30T00:29:36.562Z,977.26
2017-03-30T00:30:45.627Z,977.23
2017-03-30T00:31:55.287Z,977.24
2017-03-30T00:33:04.283Z,977.2
2017-03-30T00:34:13.290Z,977.22
2017-03-30T00:35:22.044Z,977.26
2017-03-30T00:36:30.809Z,977.24
2017-03-30T00:37:39.565Z,977.24
2017-03-30T00:38:48.272Z,977.25
2017-03-30T00:39:57.043Z,977.24
2017-03-30T00:41:06.104Z,977.26
2017-03-30T00:42:14.854Z,977.26
2017-03-30T00:43:23.556Z,977.26
2017-03-30T00:44:32.263Z,977.26
2017-03-30T00:45:41.629Z,977.32
2017-03-30T00:46:50.693Z,977.26
2017-03-30T00:47:59.479Z,977.23
2017-03-30T00:49:08.250Z,977.26
2017-03-30T00:50:17.627Z,977.21
2017-03-30T00:51:26.690Z,977.24
2017-03-30T00:52:35.456Z,977.23
2017-03-30T00:53:44.221Z,977.26
2017-03-30T00:54:53.285Z,977.22
2017-03-30T00:56:02.255Z,977.24
2017-03-30T00:57:11.324Z,977.21
2017-03-30T00:58:20.086Z,977.18
2017-03-30T00:59:28.831Z,977.2
2017-03-30T01:00:37.835Z,977.21
2017-03-30T01:01:46.600Z,977.16
2017-03-30T01:02:55.371Z,977.21
2017-03-30T01:04:04.134Z,977.22
2017-03-30T01:05:12.897Z,977.22
2017-03-30T01:06:21.861Z,977.21
2017-03-30T01:07:30.627Z,977.17
2017-03-30T01:08:39.386Z,977.12
2017-03-30T01:09:48.151Z,977.15
2017-03-30T01:10:56.908Z,977.11
2017-03-30T01:12:05.983Z,977.15
2017-03-30T01:13:14.743Z,977.13
2017-03-30T01:14:23.496Z,977.14
2017-03-30T01:15:32.207Z,977.09
2017-03-30T01:16:41.278Z,977.11
2017-03-30T01:17:50.338Z,977.09
2017-03-30T01:18:59.044Z,977.06
2017-03-30T01:20:07.806Z,977.04
2017-03-30T01:21:16.867Z,977.05
2017-03-30T01:22:25.632Z,977.06
2017-03-30T01:23:34.390Z,977.09
2017-03-30T01:24:43.148Z,977.12
2017-03-30T01:25:52.545Z,977.13
2017-03-30T01:27:01.909Z,977.13
2017-03-30T01:28:10.673Z,977.15
2017-03-30T01:29:19.438Z,977.12
2017-03-30T01:30:28.194Z,977.13
2017-03-30T01:31:37.250Z,977.12
2017-03-30T01:32:45.945Z,977.09
2017-03-30T01:33:54.699Z,977.16
2017-03-30T01:35:03.468Z,977.12
2017-03-30T01:36:12.552Z,977.13
2017-03-30T01:37:21.311Z,977.1
2017-03-30T01:38:30.410Z,977.08
2017-03-30T01:39:39.175Z,977.1
2017-03-30T01:40:47.936Z,977.12
2017-03-30T01:41:56.704Z,977.08
2017-03-30T01:43:05.460Z,977.12
2017-03-30T01:44:14.218Z,977.1
2017-03-30T01:45:22.981Z,977.14
2017-03-30T01:46:32.049Z,977.13
2017-03-30T01:47:41.106Z,977.13
2017-03-30T01:48:49.863Z,977.13
2017-03-30T01:49:58.628Z,977.15
2017-03-30T01:51:08.001Z,977.11
2017-03-30T01:52:16.766Z,977.12
2017-03-30T01:53:25.732Z,977.11
2017-03-30T01:54:34.486Z,977.08
2017-03-30T01:55:43.494Z,977.13
2017-03-30T01:56:52.250Z,977.08
2017-03-30T01:58:01.317Z,977.13
2017-03-30T01:59:10.677Z,977.08
2017-03-30T02:00:19.431Z,977.1
2017-03-30T02:01:28.182Z,977.09
2017-03-30T02:02:36.891Z,977.13
2017-03-30T02:03:45.655Z,977.11
2017-03-30T02:04:54.404Z,977.11
2017-03-30T02:06:03.160Z,977.1
2017-03-30T02:07:11.872Z,977.13
2017-03-30T02:08:20.931Z,977.13
2017-03-30T02:09:30.000Z,977.17
2017-03-30T02:10:39.061Z,977.17
2017-03-30T02:11:47.821Z,977.2
2017-03-30T02:12:56.609Z,977.14
2017-03-30T02:14:05.358Z,977.17
2017-03-30T02:15:14.065Z,977.13
2017-03-30T02:16:22.823Z,977.11
2017-03-30T02:17:38.848Z,977.09
2017-03-30T02:18:47.602Z,977.15
2017-03-30T02:19:56.659Z,977.14
2017-03-30T02:21:05.376Z,977.15
2017-03-30T02:22:14.141Z,977.14
2017-03-30T02:23:22.900Z,977.13
2017-03-30T02:24:31.658Z,977.16
2017-03-30T02:25:41.124Z,977.17
2017-03-30T02:26:50.184Z,977.17
2017-03-30T02:27:59.491Z,977.13
2017-03-30T02:29:08.247Z,977.14
2017-03-30T02:30:16.954Z,977.11
2017-03-30T02:31:26.022Z,977.11
2017-03-30T02:32:35.090Z,977.12
2017-03-30T02:33:44.144Z,977.11
2017-03-30T02:34:53.441Z,977.14
2017-03-30T02:36:03.058Z,977.12
2017-03-30T02:37:12.105Z,977.13
2017-03-30T02:38:20.805Z,977.17
2017-03-30T02:39:30.117Z,977.2
2017-03-30T02:40:39.488Z,977.18
2017-03-30T02:41:48.548Z,977.18
2017-03-30T02:42:57.616Z,977.13
2017-03-30T02:44:06.692Z,977.16
2017-03-30T02:45:16.047Z,977.12
2017-03-30T02:46:24.833Z,977.16
2017-03-30T02:47:34.201Z,977.11
2017-03-30T02:48:42.952Z,977.11
2017-03-30T02:49:51.707Z,977.09
2017-03-30T02:51:00.723Z,977.13
2017-03-30T02:52:09.783Z,977.13
2017-03-30T02:53:18.550Z,977.15
2017-03-30T02:54:27.314Z,977.14
2017-03-30T02:55:36.375Z,977.15
2017-03-30T02:56:45.438Z,977.1
2017-03-30T02:57:54.170Z,977.14
2017-03-30T02:59:03.744Z,977.16
2017-03-30T03:00:12.510Z,977.17
2017-03-30T03:01:21.274Z,977.16
2017-03-30T03:02:30.026Z,977.17
2017-03-30T03:03:39.597Z,977.16
2017-03-30T03:04:48.368Z,977.18
2017-03-30T03:05:57.408Z,977.19
2017-03-30T03:07:06.157Z,977.19
2017-03-30T03:08:15.163Z,977.19
2017-03-30T03:09:23.917Z,977.21
2017-03-30T03:10:32.671Z,977.19
2017-03-30T03:11:41.412Z,977.13
2017-03-30T03:12:50.475Z,977.21
2017-03-30T03:13:59.228Z,977.19
2017-03-30T03:15:07.989Z,977.18
2017-03-30T03:16:16.745Z,977.17
2017-03-30T03:17:25.807Z,977.15
2017-03-30T03:18:34.866Z,977.16
2017-03-30T03:19:43.872Z,977.14
2017-03-30T03:20:52.621Z,977.13
2017-03-30T03:22:01.631Z,977.16
2017-03-30T03:23:11.297Z,977.13
2017-03-30T03:24:20.512Z,977.14
2017-03-30T03:25:29.276Z,977.13
2017-03-30T03:26:38.040Z,977.12
2017-03-30T03:27:46.799Z,977.08
2017-03-30T03:28:55.512Z,977.09
2017-03-30T03:30:04.204Z,977.08
2017-03-30T03:31:13.222Z,977.09
2017-03-30T03:32:22.285Z,977.1
2017-03-30T03:33:31.042Z,977.05
2017-03-30T03:34:39.808Z,977.05
2017-03-30T03:35:48.765Z,977.05
2017-03-30T03:36:57.475Z,977.08
2017-03-30T03:38:06.902Z,977.04
2017-03-30T03:39:15.653Z,977.02
2017-03-30T03:40:24.658Z,977.1
2017-03-30T03:41:33.714Z,977.08
2017-03-30T03:42:42.789Z,977.08
2017-03-30T03:43:51.543Z,977.1
2017-03-30T03:45:00.305Z,977.1
2017-03-30T03:46:09.402Z,977.08
2017-03-30T03:47:18.473Z,977.09
2017-03-30T03:48:27.532Z,977.08
2017-03-30T03:49:36.257Z,977.1
2017-03-30T03:50:45.319Z,977.12
2017-03-30T03:51:54.384Z,977.06
2017-03-30T03:53:03.168Z,977.11
2017-03-30T03:54:11.935Z,977.09
2017-03-30T03:55:21.306Z,977.09
2017-03-30T03:56:30.075Z,977.07
2017-03-30T03:57:39.142Z,977.08
2017-03-30T03:58:48.224Z,977.08
2017-03-30T03:59:56.989Z,977.1
2017-03-30T04:01:05.705Z,977.05
2017-03-30T04:02:14.660Z,977.09
2017-03-30T04:03:23.715Z,977.07
2017-03-30T04:04:32.786Z,977.09
2017-03-30T04:05:41.554Z,977.07
2017-03-30T04:06:50.318Z,977.09
2017-03-30T04:07:59.083Z,977.1
2017-03-30T04:09:08.446Z,977.1
2017-03-30T04:10:17.182Z,977.08
2017-03-30T04:11:26.246Z,977.09
2017-03-30T04:12:35.009Z,977.12
2017-03-30T04:13:43.765Z,977.09
2017-03-30T04:14:52.529Z,977.12
2017-03-30T04:16:02.208Z,977.1
2017-03-30T04:17:11.592Z,977.04
2017-03-30T04:18:20.693Z,977.07
2017-03-30T04:19:29.755Z,977.08
2017-03-30T04:20:38.818Z,977.02
2017-03-30T04:21:47.590Z,977.05
2017-03-30T04:22:56.967Z,977.05
2017-03-30T04:24:06.033Z,977.03
2017-03-30T04:25:15.312Z,977.04
2017-03-30T04:26:24.380Z,977
2017-03-30T04:27:33.449Z,976.99
2017-03-30T04:28:42.214Z,977
2017-03-30T04:29:51.580Z,977
2017-03-30T04:31:00.289Z,976.97
2017-03-30T04:32:09.357Z,977
2017-03-30T04:33:18.381Z,976.96
2017-03-30T04:34:27.443Z,976.97
2017-03-30T04:35:36.203Z,976.98
2017-03-30T04:36:44.959Z,976.97
2017-03-30T04:37:54.046Z,976.97
2017-03-30T04:39:03.105Z,976.95
2017-03-30T04:40:11.809Z,976.96
2017-03-30T04:41:20.884Z,976.99
2017-03-30T04:42:29.949Z,976.99
2017-03-30T04:43:39.312Z,977.02
2017-03-30T04:44:48.018Z,977.02
2017-03-30T04:45:57.082Z,977
2017-03-30T04:47:05.823Z,977.02
2017-03-30T04:48:14.587Z,977.02
2017-03-30T04:49:23.346Z,977.05
2017-03-30T04:50:32.100Z,976.99
2017-03-30T04:51:40.874Z,977.01
2017-03-30T04:52:50.802Z,977
2017-03-30T04:54:00.184Z,977.02
2017-03-30T04:55:09.251Z,976.99
2017-03-30T04:56:18.017Z,977.01
2017-03-30T04:57:26.781Z,977.01
2017-03-30T04:58:35.835Z,977.03
2017-03-30T04:59:44.538Z,977.02
2017-03-30T05:00:53.304Z,977.03
2017-03-30T05:02:02.072Z,977.05
2017-03-30T05:03:11.125Z,977.04
2017-03-30T05:04:20.139Z,977.07
2017-03-30T05:05:29.197Z,977.03
2017-03-30T05:06:37.907Z,977.02
2017-03-30T05:07:46.672Z,977.06
2017-03-30T05:08:56.060Z,977.01
2017-03-30T05:10:05.112Z,977.02
2017-03-30T05:11:14.120Z,976.99
2017-03-30T05:12:22.883Z,977.03
2017-03-30T05:13:31.955Z,977
2017-03-30T05:14:41.025Z,977
2017-03-30T05:15:50.078Z,977
2017-03-30T05:16:58.792Z,977.04
2017-03-30T05:18:07.860Z,977.01
2017-03-30T05:19:16.623Z,977
2017-03-30T05:20:25.693Z,976.98
2017-03-30T05:21:34.771Z,976.98
2017-03-30T05:22:44.350Z,977
2017-03-30T05:23:53.111Z,977
2017-03-30T05:25:01.874Z,976.96
2017-03-30T05:26:11.247Z,976.97
2017-03-30T05:27:19.997Z,976.95
2017-03-30T05:28:29.027Z,976.94
2017-03-30T05:29:38.005Z,976.97
2017-03-30T05:30:46.769Z,976.97
2017-03-30T05:31:56.134Z,976.95
2017-03-30T05:33:04.904Z,976.96
2017-03-30T05:34:13.674Z,977
2017-03-30T05:35:22.748Z,976.99
2017-03-30T05:36:31.810Z,976.97
2017-03-30T05:37:40.574Z,977.01
2017-03-30T05:38:49.321Z,976.99
2017-03-30T05:39:58.647Z,976.99
2017-03-30T05:41:07.412Z,976.99
2017-03-30T05:42:16.779Z,976.96
2017-03-30T05:43:25.557Z,977.02
2017-03-30T05:44:34.568Z,976.99
2017-03-30T05:45:43.633Z,976.98
2017-03-30T05:46:52.396Z,977
2017-03-30T05:48:01.438Z,977
2017-03-30T05:49:10.144Z,977
2017-03-30T05:50:18.916Z,977
2017-03-30T05:51:27.675Z,976.97
2017-03-30T05:52:36.437Z,977.05
2017-03-30T05:53:45.205Z,977.03
2017-03-30T05:54:53.970Z,977.1
2017-03-30T05:56:02.736Z,977.1
2017-03-30T05:57:11.509Z,977.11
2017-03-30T05:58:20.876Z,977.11
2017-03-30T05:59:29.947Z,977.09
2017-03-30T06:00:38.719Z,977.11
2017-03-30T06:01:47.483Z,977.16
2017-03-30T06:02:56.853Z,977.13
2017-03-30T06:04:05.622Z,977.18
2017-03-30T06:05:14.389Z,977.14
2017-03-30T06:06:23.160Z,977.14
2017-03-30T06:07:31.918Z,977.15
2017-03-30T06:08:40.829Z,977.16
2017-03-30T06:09:49.598Z,977.17
2017-03-30T06:10:58.391Z,977.16
2017-03-30T06:12:07.458Z,977.18
2017-03-30T06:13:16.509Z,977.16
2017-03-30T06:14:25.421Z,977.15
2017-03-30T06:15:34.481Z,977.16
2017-03-30T06:16:43.537Z,977.15
2017-03-30T06:17:52.589Z,977.15
2017-03-30T06:19:01.299Z,977.19
2017-03-30T06:20:10.091Z,977.14
2017-03-30T06:21:18.844Z,977.17
2017-03-30T06:22:27.856Z,977.17
2017-03-30T06:23:36.624Z,977.19
2017-03-30T06:24:45.380Z,977.19
2017-03-30T06:25:54.136Z,977.18
2017-03-30T06:27:02.871Z,977.16
2017-03-30T06:28:11.618Z,977.15
2017-03-30T06:29:20.626Z,977.17
2017-03-30T06:30:29.690Z,977.17
2017-03-30T06:31:39.064Z,977.18
2017-03-30T06:32:47.819Z,977.13
2017-03-30T06:33:56.883Z,977.19
2017-03-30T06:35:05.657Z,977.2
2017-03-30T06:36:14.734Z,977.22
2017-03-30T06:37:23.785Z,977.21
2017-03-30T06:38:33.204Z,977.2
2017-03-30T06:39:41.964Z,977.22
2017-03-30T06:40:50.976Z,977.23
2017-03-30T06:41:59.693Z,977.22
2017-03-30T06:43:08.486Z,977.25
2017-03-30T06:44:17.249Z,977.28
2017-03-30T06:45:26.009Z,977.3
2017-03-30T06:46:34.780Z,977.31
2017-03-30T06:47:43.533Z,977.31
2017-03-30T06:48:52.804Z,977.33
2017-03-30T06:50:01.880Z,977.32
2017-03-30T06:51:11.238Z,977.33
2017-03-30T06:52:20.251Z,977.35
2017-03-30T06:53:29.312Z,977.31
2017-03-30T06:54:38.039Z,977.32
2017-03-30T06:55:47.381Z,977.3
2017-03-30T06:56:56.131Z,977.29
2017-03-30T06:58:05.430Z,977.31
2017-03-30T06:59:14.134Z,977.38
2017-03-30T07:00:22.888Z,977.36
2017-03-30T07:01:31.933Z,977.38
2017-03-30T07:02:40.632Z,977.38
2017-03-30T07:03:49.348Z,977.33
2017-03-30T07:04:58.431Z,977.35
2017-03-30T07:06:07.189Z,977.34
2017-03-30T07:07:15.955Z,977.31
2017-03-30T07:08:24.716Z,977.35
2017-03-30T07:09:33.479Z,977.36
2017-03-30T07:10:42.447Z,977.36
2017-03-30T07:11:51.820Z,977.37
2017-03-30T07:13:00.540Z,977.36
2017-03-30T07:14:09.305Z,977.39
2017-03-30T07:15:18.074Z,977.36
2017-03-30T07:16:26.846Z,977.33
2017-03-30T07:17:35.607Z,977.34
2017-03-30T07:18:44.367Z,977.37
2017-03-30T07:19:53.126Z,977.34
2017-03-30T07:21:02.459Z,977.4
2017-03-30T07:22:11.226Z,977.34
2017-03-30T07:23:19.985Z,977.37
2017-03-30T07:24:29.054Z,977.42
2017-03-30T07:25:38.120Z,977.38
2017-03-30T07:26:47.344Z,977.36
2017-03-30T07:27:56.077Z,977.39
2017-03-30T07:29:05.748Z,977.38
2017-03-30T07:30:14.494Z,977.38
2017-03-30T07:31:23.260Z,977.37
2017-03-30T07:32:32.024Z,977.33
2017-03-30T07:33:40.793Z,977.38
2017-03-30T07:34:49.606Z,977.4
2017-03-30T07:35:58.703Z,977.37
2017-03-30T07:37:07.447Z,977.38
2017-03-30T07:38:16.218Z,977.42
2017-03-30T07:39:25.290Z,977.46
2017-03-30T07:40:34.353Z,977.48
2017-03-30T07:41:43.047Z,977.48
2017-03-30T07:42:51.759Z,977.4
2017-03-30T07:44:00.830Z,977.43
2017-03-30T07:45:10.214Z,977.51
2017-03-30T07:46:18.994Z,977.44
2017-03-30T07:47:27.755Z,977.48
2017-03-30T07:48:36.825Z,977.49
2017-03-30T07:49:45.891Z,977.44
2017-03-30T07:50:54.962Z,977.46
2017-03-30T07:52:03.732Z,977.45
2017-03-30T07:53:12.500Z,977.52
2017-03-30T07:54:21.270Z,977.42
2017-03-30T07:55:30.318Z,977.48
2017-03-30T07:56:39.323Z,977.49
2017-03-30T07:57:48.084Z,977.46
2017-03-30T07:58:57.114Z,977.43
2017-03-30T08:00:06.186Z,977.45
2017-03-30T08:01:15.262Z,977.41
2017-03-30T08:02:24.329Z,977.42
2017-03-30T08:03:33.398Z,977.43
2017-03-30T08:04:42.173Z,977.44
2017-03-30T08:05:50.938Z,977.43
2017-03-30T08:07:00.201Z,977.37
2017-03-30T08:08:09.566Z,977.43
2017-03-30T08:09:18.353Z,977.44
2017-03-30T08:10:27.115Z,977.46
2017-03-30T08:11:36.482Z,977.41
2017-03-30T08:12:45.248Z,977.41
2017-03-30T08:13:54.017Z,977.41
2017-03-30T08:15:03.389Z,977.42
2017-03-30T08:16:12.459Z,977.41
2017-03-30T08:17:21.524Z,977.53
2017-03-30T08:18:30.590Z,977.45
2017-03-30T08:19:39.352Z,977.47
2017-03-30T08:20:48.164Z,977.46
2017-03-30T08:21:56.931Z,977.42
2017-03-30T08:23:06.212Z,977.49
2017-03-30T08:24:15.284Z,977.49
2017-03-30T08:25:24.042Z,977.48
2017-03-30T08:26:32.813Z,977.52
2017-03-30T08:27:41.879Z,977.55
2017-03-30T08:28:51.260Z,977.51
2017-03-30T08:30:00.036Z,977.54
2017-03-30T08:31:09.105Z,977.57
2017-03-30T08:32:18.474Z,977.56
2017-03-30T08:33:27.244Z,977.58
2017-03-30T08:34:36.297Z,977.56
2017-03-30T08:35:45.013Z,977.57
2017-03-30T08:36:54.083Z,977.5
2017-03-30T08:38:02.834Z,977.47
2017-03-30T08:39:11.543Z,977.54
2017-03-30T08:40:20.304Z,977.49
2017-03-30T08:41:29.068Z,977.48
2017-03-30T08:42:38.444Z,977.54
2017-03-30T08:43:47.199Z,977.53
2017-03-30T08:44:56.221Z,977.63
2017-03-30T08:46:05.285Z,977.54
2017-03-30T08:47:14.083Z,977.53
2017-03-30T08:48:22.849Z,977.56
2017-03-30T08:49:31.628Z,977.67
2017-03-30T08:50:41.007Z,977.55
2017-03-30T08:51:49.778Z,977.65
2017-03-30T08:52:58.839Z,977.57
2017-03-30T08:54:08.211Z,977.57
2017-03-30T08:55:16.966Z,977.53
2017-03-30T08:56:26.032Z,977.62
2017-03-30T08:57:35.103Z,977.52
2017-03-30T08:58:43.869Z,977.59
2017-03-30T08:59:52.990Z,977.63
2017-03-30T09:01:01.960Z,977.51
2017-03-30T09:02:10.707Z,977.61
2017-03-30T09:03:19.717Z,977.59
2017-03-30T09:04:28.478Z,977.61
2017-03-30T09:05:37.555Z,977.57
2017-03-30T09:06:46.928Z,977.59
2017-03-30T09:07:56.190Z,977.51
2017-03-30T09:09:05.812Z,977.54
2017-03-30T09:10:14.588Z,977.55
2017-03-30T09:11:23.363Z,977.53
2017-03-30T09:12:32.130Z,977.55
2017-03-30T09:13:40.892Z,977.57
2017-03-30T09:14:49.607Z,977.61
2017-03-30T09:15:58.662Z,977.69
2017-03-30T09:17:07.670Z,977.65
2017-03-30T09:18:16.405Z,977.65
2017-03-30T09:19:25.115Z,977.65
2017-03-30T09:20:34.188Z,977.64
2017-03-30T09:21:42.956Z,977.68
2017-03-30T09:22:52.328Z,977.61
2017-03-30T09:24:01.697Z,977.65
2017-03-30T09:25:10.767Z,977.6
2017-03-30T09:26:19.535Z,977.61
2017-03-30T09:27:28.609Z,977.61
2017-03-30T09:28:37.377Z,977.61
2017-03-30T09:29:46.800Z,977.6
2017-03-30T09:30:55.555Z,977.65
2017-03-30T09:32:04.264Z,977.67
2017-03-30T09:33:13.633Z,977.68
2017-03-30T09:34:22.344Z,977.58
2017-03-30T09:35:31.105Z,977.64
2017-03-30T09:36:40.178Z,977.58
2017-03-30T09:37:49.448Z,977.6
2017-03-30T09:38:58.523Z,977.59
2017-03-30T09:40:07.892Z,977.62
2017-03-30T09:41:16.662Z,977.6
2017-03-30T09:42:25.734Z,977.64
2017-03-30T09:43:34.489Z,977.72
2017-03-30T09:44:43.486Z,977.63
2017-03-30T09:45:52.525Z,977.65
2017-03-30T09:47:01.307Z,977.68
2017-03-30T09:48:10.379Z,977.6
2017-03-30T09:49:19.117Z,977.66
2017-03-30T09:50:27.884Z,977.72
2017-03-30T09:51:36.949Z,977.65
2017-03-30T09:52:45.650Z,977.69
2017-03-30T09:53:54.662Z,977.54
2017-03-30T09:55:03.732Z,977.69
2017-03-30T09:56:12.489Z,977.54
2017-03-30T09:57:21.213Z,977.6
2017-03-30T09:58:29.930Z,977.59
2017-03-30T09:59:39.304Z,977.58
2017-03-30T10:00:48.788Z,977.49
2017-03-30T10:01:57.847Z,977.49
2017-03-30T10:03:06.860Z,977.52
2017-03-30T10:04:15.636Z,977.57
2017-03-30T10:05:24.689Z,977.51
2017-03-30T10:06:33.716Z,977.44
2017-03-30T10:07:42.461Z,977.48
2017-03-30T10:08:52.133Z,977.44
2017-03-30T10:10:00.903Z,977.42
2017-03-30T10:11:09.682Z,977.48
2017-03-30T10:12:18.762Z,977.45
2017-03-30T10:13:27.529Z,977.47
2017-03-30T10:14:36.286Z,977.48
2017-03-30T10:15:45.001Z,977.55
2017-03-30T10:16:54.063Z,977.61
2017-03-30T10:18:02.771Z,977.72
2017-03-30T10:19:12.103Z,977.65
2017-03-30T10:20:20.871Z,977.57
2017-03-30T10:21:29.941Z,977.51
2017-03-30T10:22:39.009Z,977.44
2017-03-30T10:23:47.809Z,977.42
2017-03-30T10:24:56.571Z,977.43
2017-03-30T10:26:05.334Z,977.46
2017-03-30T10:27:14.403Z,977.51
2017-03-30T10:28:23.171Z,977.63
2017-03-30T10:29:32.237Z,977.56
2017-03-30T10:30:41.305Z,977.51
2017-03-30T10:31:50.689Z,977.54
2017-03-30T10:33:00.064Z,977.47
2017-03-30T10:34:08.826Z,977.44
2017-03-30T10:35:17.600Z,977.42
2017-03-30T10:36:26.368Z,977.4
2017-03-30T10:37:35.642Z,977.36
2017-03-30T10:38:44.355Z,977.41
2017-03-30T10:39:53.779Z,977.41
2017-03-30T10:41:03.168Z,977.38
2017-03-30T10:42:11.870Z,977.37
2017-03-30T10:43:20.904Z,977.3
2017-03-30T10:44:29.675Z,977.3
2017-03-30T10:45:38.738Z,977.3
2017-03-30T10:46:47.493Z,977.34
2017-03-30T10:47:56.524Z,977.33
2017-03-30T10:49:05.285Z,977.33
2017-03-30T10:50:14.305Z,977.31
2017-03-30T10:51:23.259Z,977.28
2017-03-30T10:52:32.267Z,977.25
2017-03-30T10:53:40.979Z,977.23
2017-03-30T10:54:50.050Z,977.26
2017-03-30T10:55:58.812Z,977.26
2017-03-30T10:57:07.513Z,977.27
2017-03-30T10:58:16.540Z,977.25
2017-03-30T10:59:25.304Z,977.25
2017-03-30T11:00:34.082Z,977.26
2017-03-30T11:01:43.304Z,977.24
2017-03-30T11:02:52.071Z,977.21
2017-03-30T11:04:00.841Z,977.25
2017-03-30T11:05:09.595Z,977.25
2017-03-30T11:06:18.365Z,977.23
2017-03-30T11:07:27.438Z,977.22
2017-03-30T11:08:36.208Z,977.22
2017-03-30T11:09:45.283Z,977.23
2017-03-30T11:10:54.261Z,977.23
2017-03-30T11:12:03.035Z,977.21
2017-03-30T11:13:11.806Z,977.2
2017-03-30T11:14:20.880Z,977.19
2017-03-30T11:15:29.644Z,977.15
2017-03-30T11:16:39.358Z,977.11
2017-03-30T11:17:48.426Z,977.17
2017-03-30T11:18:57.446Z,977.21
2017-03-30T11:20:06.208Z,977.17
2017-03-30T11:21:15.277Z,977.15
2017-03-30T11:22:24.057Z,977.16
2017-03-30T11:23:32.828Z,977.2
2017-03-30T11:24:41.901Z,977.16
2017-03-30T11:25:50.975Z,977.14
2017-03-30T11:26:59.731Z,977.17
2017-03-30T11:28:08.445Z,977.15
2017-03-30T11:29:17.218Z,977.15
2017-03-30T11:30:25.975Z,977.17
2017-03-30T11:31:34.689Z,977.11
2017-03-30T11:32:44.261Z,977.11
2017-03-30T11:33:53.026Z,977.09
2017-03-30T11:35:01.795Z,977.07
2017-03-30T11:36:10.811Z,977.07
2017-03-30T11:37:19.906Z,977.1
2017-03-30T11:38:28.686Z,977.07
2017-03-30T11:39:37.464Z,977.06
2017-03-30T11:40:46.233Z,977.03
2017-03-30T11:41:54.968Z,976.97
2017-03-30T11:43:03.873Z,977.04
2017-03-30T11:44:12.892Z,977.08
2017-03-30T11:45:21.661Z,977.07
2017-03-30T11:46:30.739Z,977.07
2017-03-30T11:47:39.516Z,977.03
2017-03-30T11:48:48.289Z,977.06
2017-03-30T11:49:57.058Z,977
2017-03-30T11:51:05.774Z,977.03
2017-03-30T11:52:14.538Z,977.02
2017-03-30T11:53:23.267Z,977.01
2017-03-30T11:54:32.043Z,976.96
2017-03-30T11:55:41.082Z,976.97
2017-03-30T11:56:49.848Z,976.98
2017-03-30T11:57:58.621Z,976.93
2017-03-30T11:59:07.978Z,976.95
2017-03-30T12:00:16.704Z,976.95
2017-03-30T12:01:25.475Z,976.91
2017-03-30T12:02:34.354Z,976.89
2017-03-30T12:03:43.919Z,976.8
2017-03-30T12:04:53.554Z,976.83
2017-03-30T12:06:02.747Z,976.81
2017-03-30T12:07:11.519Z,976.76
2017-03-30T12:08:20.601Z,976.78
2017-03-30T12:09:29.372Z,976.77
2017-03-30T12:10:38.752Z,976.71
2017-03-30T12:11:48.181Z,976.7
2017-03-30T12:12:56.952Z,976.65
2017-03-30T12:14:05.911Z,976.63
2017-03-30T12:15:14.933Z,976.63
2017-03-30T12:16:24.011Z,976.59
2017-03-30T12:17:32.784Z,976.64
2017-03-30T12:18:41.556Z,976.63
2017-03-30T12:19:50.629Z,976.54
2017-03-30T12:20:59.395Z,976.55
2017-03-30T12:22:08.478Z,976.52
2017-03-30T12:23:17.250Z,976.52
2017-03-30T12:24:26.264Z,976.5
2017-03-30T12:25:35.337Z,976.48
2017-03-30T12:26:44.111Z,976.45
2017-03-30T12:27:52.922Z,976.5
2017-03-30T12:29:01.938Z,976.48
2017-03-30T12:30:10.716Z,976.49
2017-03-30T12:31:19.806Z,976.46
2017-03-30T12:32:28.582Z,976.43
2017-03-30T12:33:37.356Z,976.44
2017-03-30T12:34:46.110Z,976.44
2017-03-30T12:35:55.264Z,976.38
2017-03-30T12:37:04.282Z,976.44
2017-03-30T12:38:13.050Z,976.32
2017-03-30T12:39:22.126Z,976.36
2017-03-30T12:40:30.923Z,976.35
2017-03-30T12:41:39.692Z,976.32
2017-03-30T12:42:48.713Z,976.36
2017-03-30T12:43:57.807Z,976.3
2017-03-30T12:45:06.864Z,976.21
2017-03-30T12:46:15.876Z,976.21
2017-03-30T12:47:24.645Z,976.18
2017-03-30T12:48:33.410Z,976.12
2017-03-30T12:49:42.167Z,976.35
2017-03-30T12:50:50.922Z,976.15
2017-03-30T12:51:59.990Z,976.32
2017-03-30T12:53:08.745Z,976.15
2017-03-30T12:54:17.761Z,976.23
2017-03-30T12:55:26.540Z,976.07
2017-03-30T12:56:35.295Z,976.09
2017-03-30T12:57:44.022Z,975.99
2017-03-30T12:58:52.784Z,976.02
2017-03-30T13:00:01.552Z,975.95
2017-03-30T13:01:10.323Z,975.98
2017-03-30T13:02:19.089Z,975.89
2017-03-30T13:03:27.856Z,975.84
2017-03-30T13:04:36.630Z,975.87
2017-03-30T13:05:45.705Z,975.96
2017-03-30T13:06:54.783Z,975.88
2017-03-30T13:08:03.856Z,975.88
2017-03-30T13:09:12.930Z,975.89
2017-03-30T13:10:21.698Z,975.9
2017-03-30T13:11:30.477Z,975.87
2017-03-30T13:12:39.225Z,975.85
2017-03-30T13:13:47.940Z,975.89
2017-03-30T13:14:56.707Z,975.9
2017-03-30T13:16:05.470Z,975.79
2017-03-30T13:17:14.236Z,975.76
2017-03-30T13:18:23.312Z,975.74
2017-03-30T13:19:32.074Z,975.7
2017-03-30T13:20:41.438Z,975.72
2017-03-30T13:21:50.135Z,975.71
2017-03-30T13:22:59.748Z,975.71
2017-03-30T13:24:08.510Z,975.74
2017-03-30T13:25:17.277Z,975.69
2017-03-30T13:26:26.652Z,975.66
2017-03-30T13:27:35.420Z,975.66
2017-03-30T13:28:44.184Z,975.67
2017-03-30T13:29:52.889Z,975.63
2017-03-30T13:31:01.652Z,975.7
2017-03-30T13:32:10.421Z,975.67
2017-03-30T13:33:19.492Z,975.71
2017-03-30T13:34:28.251Z,975.7
2017-03-30T13:35:37.321Z,975.73
2017-03-30T13:36:46.588Z,975.76
2017-03-30T13:37:55.311Z,975.67
2017-03-30T13:39:04.081Z,975.63
2017-03-30T13:40:13.141Z,975.65
2017-03-30T13:41:21.836Z,975.77
2017-03-30T13:42:30.558Z,975.64
2017-03-30T13:43:39.627Z,975.67
2017-03-30T13:44:48.393Z,975.6
2017-03-30T13:45:57.455Z,975.63
2017-03-30T13:47:06.530Z,975.59
2017-03-30T13:48:15.605Z,975.6
2017-03-30T13:49:24.370Z,975.57
2017-03-30T13:50:33.130Z,975.54
2017-03-30T13:51:41.890Z,975.55
2017-03-30T13:52:50.955Z,975.52
2017-03-30T13:53:59.707Z,975.5
2017-03-30T13:55:08.779Z,975.51
2017-03-30T13:56:17.558Z,975.54
2017-03-30T13:57:26.320Z,975.51
2017-03-30T13:58:35.072Z,975.52
2017-03-30T13:59:44.084Z,975.49
2017-03-30T14:00:53.129Z,975.46
2017-03-30T14:02:02.093Z,975.47
2017-03-30T14:03:10.861Z,975.49
2017-03-30T14:04:19.615Z,975.44
2017-03-30T14:05:28.568Z,975.41
2017-03-30T14:06:37.332Z,975.45
2017-03-30T14:07:46.056Z,975.45
2017-03-30T14:08:54.815Z,975.39
2017-03-30T14:10:03.580Z,975.38
2017-03-30T14:11:12.332Z,975.39
2017-03-30T14:12:21.247Z,975.45
2017-03-30T14:13:30.314Z,975.36
2017-03-30T14:14:39.065Z,975.39
2017-03-30T14:15:47.780Z,975.33
2017-03-30T14:16:56.761Z,975.37
2017-03-30T14:18:05.525Z,975.35
2017-03-30T14:19:14.283Z,975.4
2017-03-30T14:20:23.055Z,975.41
2017-03-30T14:21:31.819Z,975.4
2017-03-30T14:22:40.914Z,975.34
2017-03-30T14:23:49.682Z,975.36
2017-03-30T14:24:58.445Z,975.32